Benjamin, Utah
Current Conditions -  °F | °C
As of 5:48 PM on Sunday 23 Nov 2014 (Local Time) from KPVU Reporting Station
Broken Clouds Broken Clouds  
Wind Chill: 34°   Ceiling: 7000
Heat Index: 34°   Visibility: 15mi
Dew Point: 21°   Wind: 3mph
Humidity: 60%   Direction: NA
Pressure: 30.25"   Gusts: NA
Location:  40.1192°N, 111.689°W
Report Text: KPVU 240048Z VRB03KT 15SM SCT050 BKN070 01/M06 A3025
Loading
Personal Weather Stations






























Interactive Weather Map New forecast layout! Learn more

10-Day Weather Forecast

Advertisements
Track Severe Weather on mobile